Time;durP1;ratioP1;P1;durP2;ratioP2;P2;SDS_P1;SDS_P2;PMS_P1;PMS_P2;Temp;Humidity;BMP_temperature;BMP_pressure;BME280_temperature;BME280_humidity;BME280_pressure;Samples;Min_cycle;Max_cycle;Signal;HPM_P1;HPM_P2
2021/05/26 04:57:10;;;;;;;2.75;1.23;;;;;;;8.93;69.68;100062.75;5191373;27;20362;-67
2021/05/26 04:59:36;;;;;;;2.42;0.95;;;;;;;9.18;70.04;100089.38;5193926;27;20060;-66
2021/05/26 05:02:01;;;;;;;5.03;1.05;;;;;;;9.40;69.42;100067.44;5194168;27;20030;-68
2021/05/26 05:04:27;;;;;;;1.65;0.98;;;;;;;9.67;68.38;100068.09;5164108;27;20530;-66
2021/05/26 05:06:54;;;;;;;1.67;0.90;;;;;;;9.89;68.51;100079.06;5173616;27;20418;-67
2021/05/26 05:09:19;;;;;;;1.05;0.93;;;;;;;10.08;67.56;100076.03;5173437;27;20026;-66
2021/05/26 05:11:45;;;;;;;3.38;1.42;;;;;;;10.16;67.34;100069.88;5174092;27;20454;-65
2021/05/26 05:14:11;;;;;;;2.88;0.95;;;;;;;10.28;66.42;100073.00;5173023;27;20446;-64
2021/05/26 05:16:36;;;;;;;2.60;1.63;;;;;;;10.36;65.85;100067.69;5172194;27;32847;-64
2021/05/26 05:19:01;;;;;;;3.97;1.33;;;;;;;10.45;65.52;100058.63;5170188;27;22611;-64
2021/05/26 05:21:27;;;;;;;1.42;0.98;;;;;;;10.55;65.82;100068.25;5171478;27;22012;-64
2021/05/26 05:23:52;;;;;;;4.60;1.08;;;;;;;10.70;65.93;100066.50;5171874;27;20030;-64
2021/05/26 05:26:18;;;;;;;3.55;0.90;;;;;;;10.79;65.40;100062.00;5171714;27;20079;-65
2021/05/26 05:28:43;;;;;;;2.25;0.93;;;;;;;10.85;64.55;100069.28;5170819;27;34616;-67
2021/05/26 05:31:09;;;;;;;2.00;0.80;;;;;;;11.04;64.76;100069.84;5169630;27;20479;-66
2021/05/26 05:33:34;;;;;;;2.45;0.57;;;;;;;11.11;63.89;100074.31;5173344;27;20038;-67
2021/05/26 05:36:00;;;;;;;3.63;0.90;;;;;;;11.18;64.53;100069.06;5173896;27;20029;-66
2021/05/26 05:38:25;;;;;;;1.52;0.80;;;;;;;11.30;63.18;100067.69;5173293;27;20172;-65
2021/05/26 05:40:50;;;;;;;3.95;1.13;;;;;;;11.38;63.20;100057.94;5112814;27;36546;-69
2021/05/26 05:43:16;;;;;;;5.28;1.10;;;;;;;11.47;63.30;100068.38;5168321;27;20020;-66
2021/05/26 05:45:41;;;;;;;4.20;1.08;;;;;;;11.48;63.25;100054.03;5152815;27;20028;-66
2021/05/26 05:48:07;;;;;;;2.03;0.90;;;;;;;11.50;62.23;100057.34;5152471;27;27668;-67
2021/05/26 05:50:32;;;;;;;4.55;1.45;;;;;;;11.56;63.35;100053.09;5152840;27;20035;-65
2021/05/26 05:52:58;;;;;;;2.58;0.90;;;;;;;11.61;61.66;100053.41;5152028;27;36654;-66
2021/05/26 05:55:24;;;;;;;4.63;0.90;;;;;;;11.69;62.76;100058.66;5150693;27;20062;-66
2021/05/26 05:57:49;;;;;;;3.25;0.90;;;;;;;11.79;61.23;100062.94;5176691;27;22199;-73
2021/05/26 06:00:15;;;;;;;1.83;1.00;;;;;;;11.87;61.13;100062.03;5186825;27;36919;-70
2021/05/26 06:02:41;;;;;;;2.15;1.00;;;;;;;11.97;60.34;100063.47;5173513;27;20392;-69
2021/05/26 06:05:06;;;;;;;2.97;1.10;;;;;;;12.07;61.18;100068.53;5173317;27;20030;-66
2021/05/26 06:07:32;;;;;;;5.20;1.05;;;;;;;12.16;61.58;100062.06;5164611;27;20466;-66
2021/05/26 06:09:57;;;;;;;3.60;1.20;;;;;;;12.25;61.35;100064.66;5157715;27;38419;-66
2021/05/26 06:12:23;;;;;;;2.10;0.70;;;;;;;12.26;59.85;100066.31;5157751;27;20047;-66
2021/05/26 06:14:48;;;;;;;4.07;0.88;;;;;;;12.26;60.13;100063.63;5158536;27;20088;-66
2021/05/26 06:17:14;;;;;;;3.53;1.13;;;;;;;12.35;59.67;100067.88;5155700;27;20058;-66
2021/05/26 06:19:39;;;;;;;2.25;1.13;;;;;;;12.45;59.45;100065.75;5153372;27;20491;-67
2021/05/26 06:22:05;;;;;;;3.78;1.00;;;;;;;12.59;60.23;100072.09;5174625;27;20033;-66
2021/05/26 06:24:30;;;;;;;2.10;0.90;;;;;;;12.72;59.01;100070.63;5158805;27;20073;-66
2021/05/26 06:26:55;;;;;;;2.60;0.80;;;;;;;12.81;59.31;100077.50;5153184;27;20031;-66
2021/05/26 06:29:21;;;;;;;1.88;0.82;;;;;;;12.82;57.51;100073.81;5140888;27;28344;-66
2021/05/26 06:31:46;;;;;;;1.27;0.70;;;;;;;12.71;56.43;100075.09;5156471;27;36557;-67
2021/05/26 06:34:12;;;;;;;1.63;0.80;;;;;;;12.81;57.10;100066.81;5158817;27;20463;-66
2021/05/26 06:36:37;;;;;;;1.92;0.80;;;;;;;12.99;57.48;100087.78;5158087;27;21016;-67
2021/05/26 06:39:03;;;;;;;3.05;0.80;;;;;;;13.03;57.02;100067.69;5158269;27;32751;-68
2021/05/26 06:41:29;;;;;;;3.53;0.93;;;;;;;13.20;56.94;100063.75;5158417;27;20023;-67
2021/05/26 06:43:54;;;;;;;1.38;0.88;;;;;;;13.36;56.90;100068.03;5158944;27;20023;-67
2021/05/26 06:46:19;;;;;;;2.90;1.00;;;;;;;13.45;56.76;100074.09;5139711;27;20547;-67
2021/05/26 06:48:45;;;;;;;1.50;0.93;;;;;;;13.54;56.29;100064.06;5158124;27;27028;-67
2021/05/26 06:51:10;;;;;;;1.23;0.77;;;;;;;13.51;55.31;100069.81;5156121;27;36676;-66
2021/05/26 06:53:35;;;;;;;2.97;1.13;;;;;;;13.54;54.79;100075.63;5156192;27;41240;-65
2021/05/26 06:56:01;;;;;;;4.47;1.27;;;;;;;13.60;56.36;100075.84;5157450;27;35360;-67
2021/05/26 06:58:26;;;;;;;4.95;1.20;;;;;;;13.83;55.93;100072.94;5157871;27;35114;-67
2021/05/26 07:00:52;;;;;;;3.55;1.23;;;;;;;13.99;55.52;100078.00;5153696;27;20036;-67
2021/05/26 07:03:17;;;;;;;2.78;0.88;;;;;;;14.08;54.54;100068.00;5137056;27;24264;-66
2021/05/26 07:05:42;;;;;;;3.75;1.00;;;;;;;14.13;53.36;100078.91;5141178;27;20035;-65
2021/05/26 07:08:08;;;;;;;4.35;0.98;;;;;;;14.21;54.55;100069.91;5157509;27;27594;-67
2021/05/26 07:10:33;;;;;;;4.10;0.80;;;;;;;14.39;53.55;100072.06;5158117;27;22335;-65
2021/05/26 07:12:59;;;;;;;3.47;0.88;;;;;;;14.45;53.14;100073.13;5157798;27;20015;-64
2021/05/26 07:15:24;;;;;;;1.15;0.70;;;;;;;14.45;52.52;100071.28;5158172;27;20360;-66
2021/05/26 07:17:49;;;;;;;4.57;1.13;;;;;;;14.43;52.23;100065.28;5157910;27;20058;-67
2021/05/26 07:20:15;;;;;;;1.70;1.05;;;;;;;14.58;52.59;100065.16;5156806;27;20060;-66
2021/05/26 07:22:41;;;;;;;4.10;0.70;;;;;;;14.75;51.87;100073.72;5157864;27;20034;-66
2021/05/26 07:25:07;;;;;;;1.55;0.90;;;;;;;14.64;50.10;100074.28;5157477;27;20023;-66
2021/05/26 07:27:32;;;;;;;3.08;1.15;;;;;;;14.50;50.27;100063.47;5157833;27;20034;-66
2021/05/26 07:29:57;;;;;;;3.90;1.00;;;;;;;14.54;50.66;100074.63;5156673;27;36079;-66
2021/05/26 07:32:23;;;;;;;2.40;0.90;;;;;;;14.61;50.59;100072.81;5157712;27;20027;-75
2021/05/26 07:34:48;;;;;;;6.20;1.00;;;;;;;14.73;51.49;100057.00;5173763;27;20053;-71
2021/05/26 07:37:14;;;;;;;4.00;0.88;;;;;;;15.01;49.94;100053.38;5156971;27;31825;-71
2021/05/26 07:39:40;;;;;;;2.92;0.90;;;;;;;15.06;49.64;100048.22;5157367;27;20023;-70
2021/05/26 07:42:06;;;;;;;1.67;0.80;;;;;;;15.13;48.99;100073.22;5155504;27;20024;-70
2021/05/26 07:44:32;;;;;;;2.30;0.60;;;;;;;15.00;48.60;100057.09;5157381;27;20047;-67
2021/05/26 07:46:57;;;;;;;4.72;1.02;;;;;;;15.16;49.79;100062.06;5156871;27;20031;-68
2021/05/26 07:49:23;;;;;;;3.05;0.85;;;;;;;15.36;49.93;100055.91;5156671;27;20046;-68
2021/05/26 07:51:53;;;;;;;1.83;0.80;;;;;;;15.49;48.16;100073.88;5156970;27;20023;-70
2021/05/26 07:54:19;;;;;;;;;;;;;;;15.42;48.17;100073.88;5156319;27;20565;-70
2021/05/26 07:56:44;;;;;;;5.18;1.40;;;;;;;15.39;48.04;100050.94;5157197;27;19927;-68
2021/05/26 07:59:10;;;;;;;1.55;1.08;;;;;;;15.54;47.68;100057.97;5156947;27;20098;-70
2021/05/26 08:01:36;;;;;;;3.92;0.90;;;;;;;15.52;47.34;100052.81;5157180;27;20028;-70
2021/05/26 08:04:01;;;;;;;3.83;0.80;;;;;;;15.73;48.64;100062.53;5157278;27;20027;-67
2021/05/26 08:06:27;;;;;;;2.85;1.10;;;;;;;15.96;47.77;100072.03;5156022;27;20064;-67
2021/05/26 08:08:52;;;;;;;3.63;1.35;;;;;;;15.95;46.76;100061.50;5137598;27;39182;-67
2021/05/26 08:11:17;;;;;;;2.35;0.93;;;;;;;16.12;47.21;100051.97;5165926;27;30422;-69
2021/05/26 08:13:43;;;;;;;4.72;1.10;;;;;;;16.26;47.01;100060.00;5144874;27;27673;-69
2021/05/26 08:16:10;;;;;;;9.85;1.23;;;;;;;16.20;45.49;100051.75;5155907;27;20035;-68
2021/05/26 08:18:35;;;;;;;2.95;1.00;;;;;;;16.19;46.06;100055.44;5156880;27;20035;-70
2021/05/26 08:21:01;;;;;;;1.33;0.68;;;;;;;16.38;46.35;100064.50;5157091;27;20027;-70
2021/05/26 08:23:26;;;;;;;3.08;1.00;;;;;;;16.46;46.13;100060.75;5154767;27;36212;-66
2021/05/26 08:25:51;;;;;;;3.65;1.10;;;;;;;16.60;46.11;100048.09;5156665;27;20027;-72
2021/05/26 08:28:17;;;;;;;1.95;0.80;;;;;;;16.77;46.75;100043.03;5154990;27;22227;-68
2021/05/26 08:30:44;;;;;;;1.48;0.85;;;;;;;16.82;44.78;100050.47;5155780;27;20024;-67
2021/05/26 08:33:10;;;;;;;3.83;1.35;;;;;;;16.83;44.81;100039.50;5155949;27;20035;-71
2021/05/26 08:35:35;;;;;;;4.13;0.70;;;;;;;16.93;44.72;100028.28;5150687;27;37436;-66
2021/05/26 08:38:01;;;;;;;2.83;0.82;;;;;;;17.01;43.97;100040.69;5134999;27;36897;-68
2021/05/26 08:40:27;;;;;;;2.35;1.00;;;;;;;16.98;43.38;100057.25;5136193;27;20023;-70
2021/05/26 08:42:52;;;;;;;1.90;0.80;;;;;;;17.04;44.88;100034.84;5134918;27;20448;-67
2021/05/26 08:45:18;;;;;;;1.63;0.80;;;;;;;17.29;43.69;100047.53;5133917;27;35952;-67
2021/05/26 08:47:45;;;;;;;2.17;0.70;;;;;;;17.31;42.94;100040.06;5135618;27;20080;-65
2021/05/26 08:50:13;;;;;;;2.00;0.80;;;;;;;17.37;43.95;100033.78;5136592;27;20133;-66
2021/05/26 08:52:39;;;;;;;1.58;0.60;;;;;;;17.48;42.91;100049.25;5135681;27;20020;-68
2021/05/26 08:55:05;;;;;;;4.93;0.98;;;;;;;17.57;42.77;100039.84;5133255;27;42603;-67
2021/05/26 08:57:30;;;;;;;4.00;0.80;;;;;;;17.57;42.33;100029.06;5134473;27;20114;-68
2021/05/26 08:59:55;;;;;;;2.65;0.55;;;;;;;17.85;42.67;100046.66;5144640;27;20069;-68
2021/05/26 09:02:21;;;;;;;3.40;0.90;;;;;;;18.08;42.70;100026.34;5155677;27;37640;-67
2021/05/26 09:04:47;;;;;;;4.68;0.80;;;;;;;18.55;43.43;100036.59;5156459;27;20025;-67
2021/05/26 09:07:13;;;;;;;2.13;0.77;;;;;;;18.77;40.95;100024.25;5156288;27;20128;-67
2021/05/26 09:09:54;;;;;;;1.25;0.60;;;;;;;18.86;41.73;100019.38;5155978;27;20023;-68
2021/05/26 09:12:33;;;;;;;2.47;1.00;;;;;;;19.33;42.94;100024.13;5156121;27;20547;-68
2021/05/26 11:04:18;;;;;;;5.00;1.65;;;;;;;16.65;41.87;99959.53;5194072;27;20333;-66
2021/05/26 11:06:45;;;;;;;4.50;1.60;;;;;;;16.70;41.68;99940.03;5176750;27;20750;-66
2021/05/26 11:09:10;;;;;;;2.35;0.90;;;;;;;16.81;41.54;99946.59;5193859;27;20026;-65
2021/05/26 11:11:39;;;;;;;5.60;1.67;;;;;;;16.97;42.01;99945.28;5195159;27;20030;-65
2021/05/26 11:14:11;;;;;;;2.85;0.80;;;;;;;17.19;41.75;99932.28;5194647;27;20026;-67
2021/05/26 11:16:37;;;;;;;1.98;0.80;;;;;;;17.27;40.79;99945.44;5194768;27;20099;-67
2021/05/26 11:19:10;;;;;;;3.05;1.10;;;;;;;17.23;40.94;99933.47;5193791;27;20467;-65
2021/05/26 11:21:36;;;;;;;3.08;1.20;;;;;;;17.36;41.30;99924.44;5184861;27;20467;-65
2021/05/26 11:24:01;;;;;;;3.67;0.70;;;;;;;17.77;41.62;99928.41;5182938;27;20034;-66
2021/05/26 11:26:33;;;;;;;4.15;1.23;;;;;;;18.09;41.37;99921.00;5182480;27;20023;-67
2021/05/26 11:28:59;;;;;;;0.88;0.60;;;;;;;18.22;39.80;99924.56;5183808;27;20048;-65
2021/05/26 11:31:24;;;;;;;3.20;0.90;;;;;;;18.39;40.21;99916.69;5184411;27;34368;-70
2021/05/26 11:33:59;;;;;;;4.88;1.00;;;;;;;18.47;39.66;99919.06;5180651;27;20030;-69
2021/05/26 11:36:43;;;;;;;2.75;0.80;;;;;;;18.70;40.13;99909.38;5188578;27;20645;-68
2021/05/26 11:39:29;;;;;;;2.90;0.90;;;;;;;19.17;40.41;99912.19;5194998;27;20845;-70
2021/05/26 11:42:08;;;;;;;1.08;0.70;;;;;;;19.22;38.08;99911.50;5194708;27;20132;-67
2021/05/26 11:44:37;;;;;;;2.05;0.68;;;;;;;18.95;37.81;99898.44;5195052;27;20023;-69
2021/05/26 11:47:03;;;;;;;4.47;1.33;;;;;;;18.96;38.41;99907.34;5193063;27;20033;-67
2021/05/26 11:49:30;;;;;;;2.78;0.57;;;;;;;19.16;37.74;99888.13;5194686;27;20248;-68
2021/05/26 11:52:10;;;;;;;2.83;0.80;;;;;;;19.42;37.31;99881.41;5194253;27;20038;-68
2021/05/26 11:54:51;;;;;;;2.20;0.80;;;;;;;19.24;36.12;99883.19;5194784;27;20041;-68
2021/05/26 11:57:17;;;;;;;2.67;0.80;;;;;;;19.12;35.29;99895.88;5193413;27;20598;-68
2021/05/26 11:59:49;;;;;;;5.80;1.02;;;;;;;18.86;35.17;99879.06;5165863;27;34994;-67
2021/05/26 12:02:15;;;;;;;2.17;0.77;;;;;;;19.09;36.02;99880.13;5182470;27;20142;-67
2021/05/26 12:04:40;;;;;;;1.05;0.50;;;;;;;19.28;35.11;99888.94;5179753;27;33112;-66
2021/05/26 12:07:08;;;;;;;2.50;0.60;;;;;;;19.34;35.72;99866.41;5172313;27;32649;-64
2021/05/26 12:09:33;;;;;;;1.80;0.52;;;;;;;19.39;33.73;99865.69;5173348;27;20035;-64
2021/05/26 12:12:12;;;;;;;1.23;0.70;;;;;;;19.13;33.77;99873.22;5172796;27;35149;-63
2021/05/26 12:14:37;;;;;;;0.77;0.40;;;;;;;18.89;33.85;99853.47;5162480;27;20788;-64
2021/05/26 12:17:03;;;;;;;3.15;0.70;;;;;;;18.95;33.88;99860.66;5170626;27;32474;-65
2021/05/26 12:19:29;;;;;;;1.33;0.55;;;;;;;19.24;34.68;99856.19;5151323;27;35898;-64
2021/05/26 12:22:21;;;;;;;1.35;0.35;;;;;;;19.30;34.01;99840.09;5165453;27;20061;-64
2021/05/26 12:24:59;;;;;;;1.08;0.52;;;;;;;19.19;33.54;99860.66;5168818;27;20027;-64
2021/05/26 12:27:44;;;;;;;3.03;0.82;;;;;;;19.17;33.69;99857.38;5168402;27;20028;-64
2021/05/26 12:30:23;;;;;;;1.85;0.55;;;;;;;19.09;33.32;99851.25;5166302;27;20410;-63
2021/05/26 12:32:51;;;;;;;2.15;0.73;;;;;;;19.10;34.02;99869.09;5166117;27;20395;-62
2021/05/26 12:35:24;;;;;;;1.42;0.50;;;;;;;18.94;33.83;99853.59;5169029;27;20577;-62
2021/05/26 12:37:52;;;;;;;0.70;0.40;;;;;;;18.96;33.85;99842.56;5168852;27;20560;-63
2021/05/26 12:40:17;;;;;;;2.85;0.50;;;;;;;18.80;33.94;99863.78;5167848;27;20102;-63
2021/05/26 12:42:42;;;;;;;0.95;0.85;;;;;;;18.57;33.89;99846.47;5168162;27;20289;-62
2021/05/26 12:45:29;;;;;;;2.63;0.80;;;;;;;18.32;34.19;99832.38;5169284;27;20065;-62
2021/05/26 12:47:54;;;;;;;1.85;0.80;;;;;;;18.14;34.34;99842.16;5164064;27;20027;-65
2021/05/26 12:50:22;;;;;;;2.28;0.70;;;;;;;18.00;34.52;99843.38;5158552;27;20027;-64
2021/05/26 12:52:52;;;;;;;3.75;0.75;;;;;;;17.91;34.80;99843.69;5169785;27;20073;-60
2021/05/26 12:55:20;;;;;;;;;;;;;;;17.86;34.82;99846.19;5168219;27;20035;-60
2021/05/26 12:57:46;;;;;;;4.10;0.80;;;;;;;17.81;35.26;99862.25;5167211;27;19919;-61
2021/05/26 13:00:19;;;;;;;1.05;0.70;;;;;;;17.78;35.48;99865.38;5166723;27;20031;-63
2021/05/26 13:02:46;;;;;;;1.27;0.90;;;;;;;17.73;35.36;99849.09;5162320;27;20844;-62
2021/05/26 13:05:13;;;;;;;3.22;1.30;;;;;;;17.63;35.47;99838.00;5163401;27;20114;-62
2021/05/26 13:07:47;;;;;;;2.03;0.80;;;;;;;17.49;35.79;99846.22;5167788;27;20027;-60
2021/05/26 13:10:26;;;;;;;2.65;0.68;;;;;;;17.41;35.94;99841.97;5162763;27;20038;-60
2021/05/26 13:13:14;;;;;;;0.88;0.60;;;;;;;17.35;36.33;99852.81;5155285;27;20131;-59
2021/05/26 13:15:44;;;;;;;0.57;0.32;;;;;;;17.25;36.37;99839.88;5145475;27;20073;-59
2021/05/26 13:18:09;;;;;;;4.50;1.15;;;;;;;17.25;36.93;99832.63;5156564;27;20023;-60
2021/05/26 13:20:38;;;;;;;2.17;0.80;;;;;;;17.17;37.22;99838.28;5156566;27;25020;-60
2021/05/26 13:23:05;;;;;;;2.13;0.70;;;;;;;17.19;37.25;99832.69;5164600;27;20177;-59
2021/05/26 13:25:32;;;;;;;1.20;0.60;;;;;;;17.12;37.29;99848.88;5166024;27;20027;-59
2021/05/26 13:27:58;;;;;;;2.50;0.70;;;;;;;17.07;37.79;99867.56;5165362;27;20514;-61
2021/05/26 13:30:25;;;;;;;1.35;0.52;;;;;;;17.02;37.96;99844.03;5163910;27;20057;-63
2021/05/26 13:32:50;;;;;;;0.68;0.60;;;;;;;16.89;38.31;99854.88;5156439;27;20040;-63
2021/05/26 13:35:16;;;;;;;1.45;0.70;;;;;;;16.78;38.68;99837.56;5156772;27;20126;-60
2021/05/26 13:37:42;;;;;;;1.40;0.60;;;;;;;16.75;39.19;99843.41;5156746;27;20041;-60
2021/05/26 13:40:08;;;;;;;3.50;0.73;;;;;;;16.70;39.09;99836.00;5157743;27;20092;-61
2021/05/26 13:42:35;;;;;;;1.52;0.80;;;;;;;16.68;39.17;99829.19;5166636;27;20064;-61
2021/05/26 13:45:00;;;;;;;1.75;0.73;;;;;;;16.58;39.42;99838.56;5164876;27;20023;-60
2021/05/26 13:47:26;;;;;;;2.47;1.02;;;;;;;16.55;39.37;99832.78;5166885;27;20019;-61
2021/05/26 13:49:51;;;;;;;1.45;0.50;;;;;;;16.51;39.19;99842.31;5165888;27;31326;-60
2021/05/26 13:52:16;;;;;;;0.90;0.60;;;;;;;16.38;39.84;99827.94;5167517;27;20031;-60
2021/05/26 13:54:42;;;;;;;0.65;0.38;;;;;;;16.27;40.25;99820.56;5176449;27;34077;-60
2021/05/26 13:57:07;;;;;;;2.28;0.60;;;;;;;16.21;40.17;99830.34;5176463;27;34414;-61
2021/05/26 13:59:33;;;;;;;2.35;0.70;;;;;;;16.17;40.79;99815.69;5174890;27;28110;-60
2021/05/26 14:01:58;;;;;;;2.30;0.68;;;;;;;16.14;41.01;99817.97;5165283;27;20047;-61
2021/05/26 14:04:23;;;;;;;1.15;0.60;;;;;;;16.12;41.17;99820.06;5152983;27;41565;-61
2021/05/26 14:06:50;;;;;;;1.48;0.68;;;;;;;16.16;41.23;99818.59;5156119;27;20031;-61
2021/05/26 14:09:15;;;;;;;1.77;0.77;;;;;;;16.19;41.07;99813.59;5152529;27;20023;-69
